createdAt,value
2019-04-04T00:01:48.125Z,5.49
2019-04-04T00:06:57.733Z,5.29
2019-04-04T00:12:04.292Z,5.62
2019-04-04T00:17:13.204Z,4.44
2019-04-04T00:22:22.086Z,5.65
2019-04-04T00:27:30.963Z,8.52
2019-04-04T00:32:39.992Z,7.78
2019-04-04T00:37:48.837Z,5.81
2019-04-04T00:42:57.715Z,8.27
2019-04-04T00:48:06.560Z,7.01
2019-04-04T00:53:15.462Z,7.63
2019-04-04T00:58:24.375Z,8.02
2019-04-04T01:03:33.282Z,10.04
2019-04-04T01:08:42.153Z,11.08
2019-04-04T01:13:51.059Z,13.79
2019-04-04T01:18:59.947Z,9.47
2019-04-04T01:24:08.813Z,10.01
2019-04-04T01:29:17.763Z,8.69
2019-04-04T01:34:26.620Z,9.12
2019-04-04T01:39:35.461Z,9.02
2019-04-04T01:44:44.322Z,9.99
2019-04-04T01:49:53.213Z,9.48
2019-04-04T01:55:03.396Z,15.62
2019-04-04T02:00:10.509Z,14.45
2019-04-04T02:05:19.386Z,10.08
2019-04-04T02:10:28.276Z,11.84
2019-04-04T02:15:37.202Z,10.01
2019-04-04T02:20:46.112Z,14.50
2019-04-04T02:25:54.978Z,11.46
2019-04-04T02:31:03.844Z,9.86
2019-04-04T02:36:16.395Z,10.69
2019-04-04T02:41:21.104Z,9.17
2019-04-04T02:46:30.069Z,8.92
2019-04-04T02:51:41.047Z,8.88
2019-04-04T02:56:47.360Z,9.41
2019-04-04T03:01:56.241Z,8.30
2019-04-04T03:07:05.093Z,7.14
2019-04-04T03:12:13.960Z,6.71
2019-04-04T03:17:22.850Z,10.74
2019-04-04T03:22:31.728Z,6.86
2019-04-04T03:27:40.590Z,5.46
2019-04-04T03:32:54.195Z,6.44
2019-04-04T03:37:57.846Z,6.14
2019-04-04T03:43:06.716Z,6.26
2019-04-04T03:48:17.756Z,5.48
2019-04-04T03:53:23.999Z,10.00
2019-04-04T03:58:32.899Z,6.78
2019-04-04T04:03:41.746Z,9.26
2019-04-04T04:08:53.677Z,10.46
2019-04-04T04:13:59.029Z,24.76
2019-04-04T04:19:07.915Z,16.29
2019-04-04T04:24:16.778Z,20.96
2019-04-04T04:29:29.482Z,11.95
2019-04-04T04:34:34.311Z,9.07
2019-04-04T04:39:42.394Z,7.99
2019-04-04T04:44:51.296Z,22.90
2019-04-04T04:50:00.196Z,14.34
2019-04-04T04:55:11.831Z,10.66
2019-04-04T05:00:17.493Z,26.92
2019-04-04T05:05:26.356Z,19.26
2019-04-04T05:10:35.212Z,21.61
2019-04-04T05:15:44.068Z,21.88
2019-04-04T05:20:52.960Z,11.10
2019-04-04T05:26:03.083Z,10.89
2019-04-04T05:31:10.236Z,8.32
2019-04-04T05:36:19.084Z,11.44
2019-04-04T05:41:28.090Z,8.49
2019-04-04T05:46:36.905Z,10.26
2019-04-04T05:51:46.297Z,7.44
2019-04-04T05:56:54.194Z,9.23
2019-04-04T06:02:03.040Z,8.93
2019-04-04T06:07:11.899Z,7.41
2019-04-04T06:12:20.732Z,7.16
2019-04-04T06:17:29.777Z,8.17
2019-04-04T06:22:38.620Z,7.14
2019-04-04T06:27:47.602Z,8.28
2019-04-04T06:32:56.447Z,6.64
2019-04-04T06:38:05.312Z,6.41
2019-04-04T06:43:14.261Z,7.04
2019-04-04T06:48:23.092Z,7.25
2019-04-04T06:53:31.975Z,5.27
2019-04-04T06:58:40.836Z,5.34
2019-04-04T07:03:52.495Z,6.31
2019-04-04T07:08:58.107Z,8.05
2019-04-04T07:14:07.092Z,6.51
2019-04-04T07:19:15.860Z,5.67
2019-04-04T07:24:24.731Z,4.92
2019-04-04T07:29:33.599Z,7.08
2019-04-04T07:34:44.963Z,5.35
2019-04-04T07:39:50.821Z,6.07
2019-04-04T07:44:59.709Z,4.33
2019-04-04T07:50:08.576Z,4.52
2019-04-04T07:55:17.531Z,6.04
2019-04-04T08:00:26.357Z,6.82
2019-04-04T08:05:35.235Z,6.67
2019-04-04T08:10:44.100Z,6.42
2019-04-04T08:15:52.957Z,5.38
2019-04-04T08:21:01.840Z,5.87
2019-04-04T08:26:10.732Z,5.55
2019-04-04T08:31:19.613Z,5.15
2019-04-04T08:36:28.492Z,4.73
2019-04-04T08:41:37.391Z,6.98
2019-04-04T08:46:46.240Z,4.48
2019-04-04T08:51:55.108Z,4.20
2019-04-04T08:57:03.976Z,4.43
2019-04-04T09:02:12.833Z,4.51
2019-04-04T09:07:21.692Z,4.51
2019-04-04T09:12:30.563Z,4.21
2019-04-04T09:17:39.452Z,5.18
2019-04-04T09:22:48.313Z,4.50
2019-04-04T09:27:57.287Z,4.96
2019-04-04T09:33:06.132Z,5.46
2019-04-04T09:38:15.131Z,4.65
2019-04-04T09:43:24.011Z,4.79
2019-04-04T09:48:32.914Z,3.82
2019-04-04T09:53:53.037Z,4.42
2019-04-04T09:58:50.255Z,4.03
2019-04-04T10:03:59.116Z,4.30
2019-04-04T10:09:15.683Z,4.93
2019-04-04T10:14:16.375Z,5.13
2019-04-04T10:19:25.279Z,4.62
2019-04-04T10:24:34.161Z,6.37
2019-04-04T10:29:43.080Z,4.79
2019-04-04T10:34:51.936Z,5.83
2019-04-04T10:40:00.816Z,4.79
2019-04-04T10:45:09.675Z,4.71
2019-04-04T10:50:18.545Z,5.55
2019-04-04T10:55:27.393Z,4.36
2019-04-04T11:00:36.259Z,4.11
2019-04-04T11:05:45.101Z,5.11
2019-04-04T11:10:53.983Z,5.25
2019-04-04T11:16:02.898Z,5.15
2019-04-04T11:21:11.760Z,3.84
2019-04-04T11:26:20.703Z,5.72
2019-04-04T11:31:29.552Z,3.75
2019-04-04T11:36:38.400Z,7.28
2019-04-04T11:41:47.283Z,6.51
2019-04-04T11:46:56.128Z,6.92
2019-04-04T11:52:05.031Z,6.84
2019-04-04T11:57:13.888Z,9.55
2019-04-04T12:02:22.882Z,5.58
2019-04-04T12:07:31.751Z,8.06
2019-04-04T12:12:40.642Z,8.77
2019-04-04T12:17:49.495Z,8.26
2019-04-04T12:22:58.344Z,9.02
2019-04-04T12:28:07.217Z,7.18
2019-04-04T12:33:16.081Z,6.48
2019-04-04T12:38:24.929Z,10.29
2019-04-04T12:43:33.780Z,7.74
2019-04-04T12:48:42.627Z,8.81
2019-04-04T12:53:51.568Z,8.57
2019-04-04T12:59:00.417Z,9.80
2019-04-04T13:04:09.356Z,8.69
2019-04-04T13:09:18.237Z,10.56
2019-04-04T13:14:27.129Z,21.08
2019-04-04T13:19:35.998Z,20.77
2019-04-04T13:24:44.909Z,12.11
2019-04-04T13:29:53.783Z,10.15
2019-04-04T13:35:05.153Z,10.28
2019-04-04T13:40:11.112Z,8.74
2019-04-04T13:45:20.010Z,8.18
2019-04-04T13:50:28.852Z,10.01
2019-04-04T13:55:39.351Z,7.16
2019-04-04T14:00:46.131Z,5.94
2019-04-04T14:05:55.024Z,5.98
2019-04-04T14:11:03.868Z,5.84
2019-04-04T14:16:12.838Z,6.64
2019-04-04T14:21:21.728Z,8.51
2019-04-04T14:26:31.388Z,5.99
2019-04-04T14:31:39.013Z,7.10
2019-04-04T14:36:47.935Z,8.33
2019-04-04T14:41:56.815Z,7.38
2019-04-04T14:47:05.679Z,6.83
2019-04-04T14:52:14.559Z,6.13
2019-04-04T14:57:23.468Z,7.28
2019-04-04T15:02:32.358Z,7.16
2019-04-04T15:07:41.240Z,7.68
2019-04-04T15:12:50.117Z,6.80
2019-04-04T15:17:58.987Z,5.98
2019-04-04T15:23:07.895Z,7.36
2019-04-04T15:28:16.772Z,7.44
2019-04-04T15:33:25.653Z,8.48
2019-04-04T15:38:34.553Z,8.68
2019-04-04T15:43:43.416Z,10.71
2019-04-04T15:48:52.307Z,8.81
2019-04-04T15:54:01.181Z,8.11
2019-04-04T15:59:10.045Z,8.29
2019-04-04T16:04:18.927Z,7.90
2019-04-04T16:09:27.781Z,9.42
2019-04-04T16:14:36.649Z,10.16
2019-04-04T16:19:45.533Z,10.01
2019-04-04T16:24:54.431Z,10.13
2019-04-04T16:30:03.332Z,12.63
2019-04-04T16:35:12.205Z,9.61
2019-04-04T16:40:21.067Z,11.76
2019-04-04T16:45:29.942Z,12.98
2019-04-04T16:50:38.815Z,11.20
2019-04-04T16:55:47.680Z,8.91
2019-04-04T17:00:56.567Z,12.12
2019-04-04T17:06:05.659Z,11.31
2019-04-04T17:11:14.542Z,12.55
2019-04-04T17:16:23.417Z,11.54
2019-04-04T17:21:32.297Z,11.49
2019-04-04T17:26:41.160Z,11.01
2019-04-04T17:31:50.362Z,11.36
2019-04-04T17:36:58.995Z,10.67
2019-04-04T17:42:07.858Z,9.52
2019-04-04T17:47:17.009Z,9.56
2019-04-04T17:52:25.663Z,12.51
2019-04-04T17:57:34.948Z,11.60
2019-04-04T18:02:42.924Z,10.80
2019-04-04T18:07:51.803Z,10.44
2019-04-04T18:13:00.691Z,12.34
2019-04-04T18:18:09.549Z,10.57
2019-04-04T18:23:18.417Z,11.20
2019-04-04T18:28:27.287Z,12.29
2019-04-04T18:33:36.143Z,12.65
2019-04-04T18:38:45.031Z,13.39
2019-04-04T18:43:53.905Z,12.67
2019-04-04T18:49:02.813Z,14.97
2019-04-04T18:54:11.680Z,13.59
2019-04-04T18:59:20.792Z,14.28
2019-04-04T19:04:29.695Z,15.71
2019-04-04T19:09:38.611Z,18.48
2019-04-04T19:14:47.478Z,17.72
2019-04-04T19:19:56.389Z,17.29
2019-04-04T19:25:05.244Z,16.52
2019-04-04T19:30:14.154Z,17.64
2019-04-04T19:35:23.008Z,18.35
2019-04-04T19:40:31.894Z,16.77
2019-04-04T19:45:40.974Z,14.90
2019-04-04T19:50:49.847Z,15.21
2019-04-04T19:55:58.711Z,16.55
2019-04-04T20:01:07.545Z,14.86
2019-04-04T20:06:16.456Z,15.49
2019-04-04T20:11:26.653Z,16.85
2019-04-04T20:16:34.703Z,19.45
2019-04-04T20:21:43.571Z,25.87
2019-04-04T20:26:52.435Z,20.66
2019-04-04T20:32:01.330Z,20.51
2019-04-04T20:37:10.310Z,21.43
2019-04-04T20:42:19.180Z,18.87
2019-04-04T20:47:28.119Z,19.96
2019-04-04T20:52:36.987Z,18.45
2019-04-04T20:57:45.872Z,19.32
2019-04-04T21:02:54.747Z,20.17
2019-04-04T21:08:03.612Z,20.00
2019-04-04T21:13:12.487Z,17.50
2019-04-04T21:18:21.405Z,21.20
2019-04-04T21:23:30.252Z,16.94
2019-04-04T21:28:39.147Z,18.93
2019-04-04T21:33:48.107Z,19.52
2019-04-04T21:38:57.107Z,18.75
2019-04-04T21:44:08.947Z,18.64
2019-04-04T21:49:14.399Z,22.75
2019-04-04T21:54:23.263Z,23.73
2019-04-04T21:59:32.120Z,22.64
2019-04-04T22:04:41.059Z,20.82
2019-04-04T22:09:49.925Z,23.86
2019-04-04T22:14:58.827Z,23.04
2019-04-04T22:20:07.672Z,21.92
2019-04-04T22:25:16.591Z,18.79
2019-04-04T22:30:25.436Z,15.95
2019-04-04T22:35:34.355Z,15.52
2019-04-04T22:40:43.275Z,14.87
2019-04-04T22:45:52.181Z,14.44
2019-04-04T22:51:01.134Z,18.70
2019-04-04T22:56:10.024Z,17.53
2019-04-04T23:01:18.888Z,15.47
2019-04-04T23:06:27.792Z,17.26
2019-04-04T23:11:36.739Z,12.89
2019-04-04T23:16:45.679Z,14.61
2019-04-04T23:21:54.630Z,14.57
2019-04-04T23:27:03.485Z,12.91
2019-04-04T23:32:12.407Z,13.56
2019-04-04T23:37:21.295Z,12.41
2019-04-04T23:42:30.212Z,13.55
2019-04-04T23:47:43.289Z,10.78
2019-04-04T23:52:47.584Z,12.02
2019-04-04T23:57:56.459Z,10.33
